sensor_id;sensor_type;location;lat;lon;timestamp;pressure;altitude;pressure_sealevel;temperature
71630;BMP280;59479;51.902;8.212;2023-04-23T00:01:14;100163.28;;;15.39
71630;BMP280;59479;51.902;8.212;2023-04-23T00:03:42;100161.47;;;15.44
71630;BMP280;59479;51.902;8.212;2023-04-23T00:06:08;100161.94;;;15.58
71630;BMP280;59479;51.902;8.212;2023-04-23T00:08:41;100163.34;;;15.38
71630;BMP280;59479;51.902;8.212;2023-04-23T00:11:07;100151.53;;;15.38
71630;BMP280;59479;51.902;8.212;2023-04-23T00:13:33;100159.28;;;15.32
71630;BMP280;59479;51.902;8.212;2023-04-23T00:15:59;100157.75;;;15.27
71630;BMP280;59479;51.902;8.212;2023-04-23T00:18:25;100159.50;;;15.25
71630;BMP280;59479;51.902;8.212;2023-04-23T00:20:50;100155.00;;;15.34
71630;BMP280;59479;51.902;8.212;2023-04-23T00:23:16;100148.44;;;15.27
71630;BMP280;59479;51.902;8.212;2023-04-23T00:25:42;100157.84;;;15.22
71630;BMP280;59479;51.902;8.212;2023-04-23T00:28:07;100164.50;;;15.26
71630;BMP280;59479;51.902;8.212;2023-04-23T00:30:32;100160.16;;;15.31
71630;BMP280;59479;51.902;8.212;2023-04-23T00:32:58;100154.63;;;15.14
71630;BMP280;59479;51.902;8.212;2023-04-23T00:35:23;100148.44;;;15.27
71630;BMP280;59479;51.902;8.212;2023-04-23T00:37:49;100159.28;;;15.32
71630;BMP280;59479;51.902;8.212;2023-04-23T00:40:14;100149.88;;;15.36
71630;BMP280;59479;51.902;8.212;2023-04-23T00:42:40;100148.06;;;15.41
71630;BMP280;59479;51.902;8.212;2023-04-23T00:45:06;100153.13;;;15.41
71630;BMP280;59479;51.902;8.212;2023-04-23T00:47:33;100154.28;;;15.29
71630;BMP280;59479;51.902;8.212;2023-04-23T00:49:58;100142.50;;;15.28
71630;BMP280;59479;51.902;8.212;2023-04-23T00:52:24;100154.25;;;15.31
71630;BMP280;59479;51.902;8.212;2023-04-23T00:54:49;100151.84;;;15.26
71630;BMP280;59479;51.902;8.212;2023-04-23T00:57:15;100153.66;;;15.21
71630;BMP280;59479;51.902;8.212;2023-04-23T00:59:41;100151.47;;;15.08
71630;BMP280;59479;51.902;8.212;2023-04-23T01:02:06;100159.13;;;15.05
71630;BMP280;59479;51.902;8.212;2023-04-23T01:04:32;100155.75;;;15.05
71630;BMP280;59479;51.902;8.212;2023-04-23T01:06:59;100149.38;;;14.90
71630;BMP280;59479;51.902;8.212;2023-04-23T01:09:25;100153.69;;;14.87
71630;BMP280;59479;51.902;8.212;2023-04-23T01:11:52;100157.31;;;14.77
71630;BMP280;59479;51.902;8.212;2023-04-23T01:14:17;100154.72;;;14.80
71630;BMP280;59479;51.902;8.212;2023-04-23T01:16:43;100159.56;;;14.87
71630;BMP280;59479;51.902;8.212;2023-04-23T01:19:09;100158.69;;;14.90
71630;BMP280;59479;51.902;8.212;2023-04-23T01:21:36;100165.47;;;14.88
71630;BMP280;59479;51.902;8.212;2023-04-23T01:24:06;100165.31;;;14.94
71630;BMP280;59479;51.902;8.212;2023-04-23T01:26:32;100173.94;;;14.87
71630;BMP280;59479;51.902;8.212;2023-04-23T01:28:58;100172.19;;;14.89
71630;BMP280;59479;51.902;8.212;2023-04-23T01:31:24;100175.81;;;14.79
71630;BMP280;59479;51.902;8.212;2023-04-23T01:33:50;100179.19;;;14.78
71630;BMP280;59479;51.902;8.212;2023-04-23T01:36:18;100176.03;;;14.70
71630;BMP280;59479;51.902;8.212;2023-04-23T01:38:43;100186.50;;;14.55
71630;BMP280;59479;51.902;8.212;2023-04-23T01:41:08;100185.69;;;14.55
71630;BMP280;59479;51.902;8.212;2023-04-23T01:43:34;100191.66;;;14.51
71630;BMP280;59479;51.902;8.212;2023-04-23T01:46:00;100194.56;;;14.34
71630;BMP280;59479;51.902;8.212;2023-04-23T01:48:25;100195.16;;;14.45
71630;BMP280;59479;51.902;8.212;2023-04-23T01:50:52;100195.69;;;14.58
71630;BMP280;59479;51.902;8.212;2023-04-23T01:53:17;100190.75;;;14.55
71630;BMP280;59479;51.902;8.212;2023-04-23T01:55:46;100191.50;;;14.58
71630;BMP280;59479;51.902;8.212;2023-04-23T01:58:12;100189.59;;;14.66
71630;BMP280;59479;51.902;8.212;2023-04-23T02:00:37;100193.00;;;14.65
71630;BMP280;59479;51.902;8.212;2023-04-23T02:03:03;100184.41;;;14.72
71630;BMP280;59479;51.902;8.212;2023-04-23T02:05:28;100178.66;;;14.66
71630;BMP280;59479;51.902;8.212;2023-04-23T02:07:54;100186.44;;;14.58
71630;BMP280;59479;51.902;8.212;2023-04-23T02:10:20;100184.88;;;14.51
71630;BMP280;59479;51.902;8.212;2023-04-23T02:12:46;100193.94;;;14.61
71630;BMP280;59479;51.902;8.212;2023-04-23T02:15:13;100196.47;;;14.61
71630;BMP280;59479;51.902;8.212;2023-04-23T02:17:38;100196.47;;;14.61
71630;BMP280;59479;51.902;8.212;2023-04-23T02:20:08;100195.91;;;14.49
71630;BMP280;59479;51.902;8.212;2023-04-23T02:22:35;100190.63;;;14.59
71630;BMP280;59479;51.902;8.212;2023-04-23T02:25:02;100185.63;;;14.56
71630;BMP280;59479;51.902;8.212;2023-04-23T02:27:28;100197.38;;;14.59
71630;BMP280;59479;51.902;8.212;2023-04-23T02:29:53;100193.91;;;14.63
71630;BMP280;59479;51.902;8.212;2023-04-23T02:32:18;100192.53;;;14.50
71630;BMP280;59479;51.902;8.212;2023-04-23T02:34:44;100195.00;;;14.51
71630;BMP280;59479;51.902;8.212;2023-04-23T02:37:09;100195.72;;;14.56
71630;BMP280;59479;51.902;8.212;2023-04-23T02:39:34;100189.88;;;14.54
71630;BMP280;59479;51.902;8.212;2023-04-23T02:42:00;100190.19;;;14.41
71630;BMP280;59479;51.902;8.212;2023-04-23T02:44:26;100185.06;;;14.45
71630;BMP280;59479;51.902;8.212;2023-04-23T02:46:51;100185.31;;;14.33
71630;BMP280;59479;51.902;8.212;2023-04-23T02:49:16;100187.78;;;14.36
71630;BMP280;59479;51.902;8.212;2023-04-23T02:51:44;100194.47;;;14.39
71630;BMP280;59479;51.902;8.212;2023-04-23T02:54:09;100194.81;;;14.23
71630;BMP280;59479;51.902;8.212;2023-04-23T02:56:35;100188.97;;;14.21
71630;BMP280;59479;51.902;8.212;2023-04-23T02:59:01;100195.66;;;14.23
71630;BMP280;59479;51.902;8.212;2023-04-23T03:01:26;100193.16;;;14.23
71630;BMP280;59479;51.902;8.212;2023-04-23T03:03:52;100199.81;;;14.26
71630;BMP280;59479;51.902;8.212;2023-04-23T03:06:17;100192.28;;;14.23
71630;BMP280;59479;51.902;8.212;2023-04-23T03:08:43;100201.56;;;14.22
71630;BMP280;59479;51.902;8.212;2023-04-23T03:11:08;100195.56;;;14.27
71630;BMP280;59479;51.902;8.212;2023-04-23T03:13:33;100206.66;;;14.21
71630;BMP280;59479;51.902;8.212;2023-04-23T03:15:59;100199.81;;;14.26
71630;BMP280;59479;51.902;8.212;2023-04-23T03:18:24;100198.13;;;14.25
71630;BMP280;59479;51.902;8.212;2023-04-23T03:20:49;100200.88;;;14.16
71630;BMP280;59479;51.902;8.212;2023-04-23T03:23:15;100196.59;;;14.19
71630;BMP280;59479;51.902;8.212;2023-04-23T03:25:40;100197.34;;;14.23
71630;BMP280;59479;51.902;8.212;2023-04-23T03:28:05;100196.53;;;14.22
71630;BMP280;59479;51.902;8.212;2023-04-23T03:30:31;100200.63;;;14.26
71630;BMP280;59479;51.902;8.212;2023-04-23T03:32:57;100199.84;;;14.24
71630;BMP280;59479;51.902;8.212;2023-04-23T03:35:23;100201.63;;;14.19
71630;BMP280;59479;51.902;8.212;2023-04-23T03:37:48;100194.72;;;14.27
71630;BMP280;59479;51.902;8.212;2023-04-23T03:40:14;100200.88;;;14.16
71630;BMP280;59479;51.902;8.212;2023-04-23T03:42:39;100197.50;;;14.17
71630;BMP280;59479;51.902;8.212;2023-04-23T03:45:05;100201.69;;;14.16
71630;BMP280;59479;51.902;8.212;2023-04-23T03:47:31;100205.06;;;14.17
71630;BMP280;59479;51.902;8.212;2023-04-23T03:49:56;100201.66;;;14.18
71630;BMP280;59479;51.902;8.212;2023-04-23T03:52:21;100203.44;;;14.14
71630;BMP280;59479;51.902;8.212;2023-04-23T03:54:47;100212.78;;;14.11
71630;BMP280;59479;51.902;8.212;2023-04-23T03:57:12;100193.50;;;14.07
71630;BMP280;59479;51.902;8.212;2023-04-23T03:59:38;100196.88;;;14.06
71630;BMP280;59479;51.902;8.212;2023-04-23T04:02:03;100198.72;;;13.96
71630;BMP280;59479;51.902;8.212;2023-04-23T04:04:29;100192.81;;;13.97
71630;BMP280;59479;51.902;8.212;2023-04-23T04:06:55;100192.03;;;13.94
71630;BMP280;59479;51.902;8.212;2023-04-23T04:09:20;100196.25;;;13.95
71630;BMP280;59479;51.902;8.212;2023-04-23T04:11:46;100202.34;;;13.85
71630;BMP280;59479;51.902;8.212;2023-04-23T04:14:12;100197.94;;;13.93
71630;BMP280;59479;51.902;8.212;2023-04-23T04:16:37;100191.34;;;13.86
71630;BMP280;59479;51.902;8.212;2023-04-23T04:19:03;100190.63;;;13.80
71630;BMP280;59479;51.902;8.212;2023-04-23T04:21:28;100194.03;;;13.79
71630;BMP280;59479;51.902;8.212;2023-04-23T04:23:54;100188.94;;;13.82
71630;BMP280;59479;51.902;8.212;2023-04-23T04:26:20;100183.97;;;13.77
71630;BMP280;59479;51.902;8.212;2023-04-23T04:28:45;100192.41;;;13.76
71630;BMP280;59479;51.902;8.212;2023-04-23T04:31:14;100189.09;;;13.73
71630;BMP280;59479;51.902;8.212;2023-04-23T04:33:40;100173.13;;;13.72
71630;BMP280;59479;51.902;8.212;2023-04-23T04:36:06;100177.44;;;13.67
71630;BMP280;59479;51.902;8.212;2023-04-23T04:38:33;100179.13;;;13.67
71630;BMP280;59479;51.902;8.212;2023-04-23T04:41:02;100174.97;;;13.64
71630;BMP280;59479;51.902;8.212;2023-04-23T04:43:27;100181.66;;;13.67
71630;BMP280;59479;51.902;8.212;2023-04-23T04:45:53;100174.91;;;13.67
71630;BMP280;59479;51.902;8.212;2023-04-23T04:48:18;100175.09;;;13.58
71630;BMP280;59479;51.902;8.212;2023-04-23T04:50:44;100192.03;;;13.53
71630;BMP280;59479;51.902;8.212;2023-04-23T04:53:10;100182.78;;;13.52
71630;BMP280;59479;51.902;8.212;2023-04-23T04:55:35;100190.41;;;13.49
71630;BMP280;59479;51.902;8.212;2023-04-23T04:58:01;100190.41;;;13.49
71630;BMP280;59479;51.902;8.212;2023-04-23T05:00:28;100194.69;;;13.44
71630;BMP280;59479;51.902;8.212;2023-04-23T05:02:55;100193.06;;;13.43
71630;BMP280;59479;51.902;8.212;2023-04-23T05:05:22;100197.34;;;13.39
71630;BMP280;59479;51.902;8.212;2023-04-23T05:07:47;100201.59;;;13.37
71630;BMP280;59479;51.902;8.212;2023-04-23T05:10:13;100197.34;;;13.39
71630;BMP280;59479;51.902;8.212;2023-04-23T05:12:39;100203.94;;;13.45
71630;BMP280;59479;51.902;8.212;2023-04-23T05:15:09;100201.34;;;13.50
71630;BMP280;59479;51.902;8.212;2023-04-23T05:17:35;100196.31;;;13.48
71630;BMP280;59479;51.902;8.212;2023-04-23T05:20:01;100188.03;;;13.41
71630;BMP280;59479;51.902;8.212;2023-04-23T05:22:27;100189.75;;;13.40
71630;BMP280;59479;51.902;8.212;2023-04-23T05:24:52;100201.53;;;13.38
71630;BMP280;59479;51.902;8.212;2023-04-23T05:27:18;100183.84;;;13.40
71630;BMP280;59479;51.902;8.212;2023-04-23T05:29:43;100188.03;;;13.41
71630;BMP280;59479;51.902;8.212;2023-04-23T05:32:09;100183.00;;;13.41
71630;BMP280;59479;51.902;8.212;2023-04-23T05:34:35;100177.94;;;13.41
71630;BMP280;59479;51.902;8.212;2023-04-23T05:37:00;100176.19;;;13.44
71630;BMP280;59479;51.902;8.212;2023-04-23T05:39:26;100182.81;;;13.49
71630;BMP280;59479;51.902;8.212;2023-04-23T05:41:52;100185.34;;;13.49
71630;BMP280;59479;51.902;8.212;2023-04-23T05:44:17;100187.13;;;13.44
71630;BMP280;59479;51.902;8.212;2023-04-23T05:46:42;100179.50;;;13.47
71630;BMP280;59479;51.902;8.212;2023-04-23T05:49:07;100166.94;;;13.44
71630;BMP280;59479;51.902;8.212;2023-04-23T05:51:33;100166.81;;;13.50
71630;BMP280;59479;51.902;8.212;2023-04-23T05:53:58;100173.69;;;13.44
71630;BMP280;59479;51.902;8.212;2023-04-23T05:56:23;100175.22;;;13.51
71630;BMP280;59479;51.902;8.212;2023-04-23T05:58:49;100175.97;;;13.56
71630;BMP280;59479;51.902;8.212;2023-04-23T06:01:15;100178.53;;;13.54
71630;BMP280;59479;51.902;8.212;2023-04-23T06:03:40;100172.75;;;13.48
71630;BMP280;59479;51.902;8.212;2023-04-23T06:06:12;100173.75;;;13.40
71630;BMP280;59479;51.902;8.212;2023-04-23T06:08:37;100172.84;;;13.43
71630;BMP280;59479;51.902;8.212;2023-04-23T06:11:04;100163.63;;;13.41
71630;BMP280;59479;51.902;8.212;2023-04-23T06:13:29;100162.72;;;13.45
71630;BMP280;59479;51.902;8.212;2023-04-23T06:15:55;100168.41;;;13.54
71630;BMP280;59479;51.902;8.212;2023-04-23T06:18:21;100163.53;;;13.47
71630;BMP280;59479;51.902;8.212;2023-04-23T06:20:46;100164.53;;;13.39
71630;BMP280;59479;51.902;8.212;2023-04-23T06:23:13;100171.22;;;13.40
71630;BMP280;59479;51.902;8.212;2023-04-23T06:25:38;100165.28;;;13.43
71630;BMP280;59479;51.902;8.212;2023-04-23T06:28:04;100175.22;;;13.51
71630;BMP280;59479;51.902;8.212;2023-04-23T06:30:29;100171.75;;;13.56
71630;BMP280;59479;51.902;8.212;2023-04-23T06:32:54;100169.91;;;13.64
71630;BMP280;59479;51.902;8.212;2023-04-23T06:35:20;100170.72;;;13.65
71630;BMP280;59479;51.902;8.212;2023-04-23T06:37:45;100168.28;;;13.62
71630;BMP280;59479;51.902;8.212;2023-04-23T06:40:10;100171.53;;;13.68
71630;BMP280;59479;51.902;8.212;2023-04-23T06:42:36;100157.91;;;13.75
71630;BMP280;59479;51.902;8.212;2023-04-23T06:45:01;100152.78;;;13.78
71630;BMP280;59479;51.902;8.212;2023-04-23T06:47:29;100155.28;;;13.80
71630;BMP280;59479;51.902;8.212;2023-04-23T06:49:56;100150.09;;;13.87
71630;BMP280;59479;51.902;8.212;2023-04-23T06:52:22;100141.50;;;13.94
71630;BMP280;59479;51.902;8.212;2023-04-23T06:54:47;100135.53;;;13.96
71630;BMP280;59479;51.902;8.212;2023-04-23T06:57:12;100147.09;;;14.09
71630;BMP280;59479;51.902;8.212;2023-04-23T06:59:38;100141.25;;;14.07
71630;BMP280;59479;51.902;8.212;2023-04-23T07:02:03;100145.56;;;14.01
71630;BMP280;59479;51.902;8.212;2023-04-23T07:04:28;100136.00;;;14.16
71630;BMP280;59479;51.902;8.212;2023-04-23T07:06:53;100135.84;;;14.24
71630;BMP280;59479;51.902;8.212;2023-04-23T07:09:19;100135.53;;;14.37
71630;BMP280;59479;51.902;8.212;2023-04-23T07:11:44;100128.03;;;14.32
71630;BMP280;59479;51.902;8.212;2023-04-23T07:14:10;100133.09;;;14.32
71630;BMP280;59479;51.902;8.212;2023-04-23T07:16:35;100139.75;;;14.36
71630;BMP280;59479;51.902;8.212;2023-04-23T07:19:00;100136.22;;;14.43
71630;BMP280;59479;51.902;8.212;2023-04-23T07:21:27;100114.97;;;14.50
71630;BMP280;59479;51.902;8.212;2023-04-23T07:23:56;100109.84;;;14.53
71630;BMP280;59479;51.902;8.212;2023-04-23T07:26:24;100108.16;;;14.54
71630;BMP280;59479;51.902;8.212;2023-04-23T07:28:49;100112.16;;;14.62
71630;BMP280;59479;51.902;8.212;2023-04-23T07:31:15;100117.28;;;14.59
71630;BMP280;59479;51.902;8.212;2023-04-23T07:33:41;100105.34;;;14.64
71630;BMP280;59479;51.902;8.212;2023-04-23T07:36:06;100107.50;;;14.79
71630;BMP280;59479;51.902;8.212;2023-04-23T07:38:31;100109.28;;;14.75
71630;BMP280;59479;51.902;8.212;2023-04-23T07:40:57;100106.56;;;14.83
71630;BMP280;59479;51.902;8.212;2023-04-23T07:43:22;100103.03;;;14.90
71630;BMP280;59479;51.902;8.212;2023-04-23T07:45:47;100107.84;;;14.99
71630;BMP280;59479;51.902;8.212;2023-04-23T07:48:13;100107.50;;;15.11
71630;BMP280;59479;51.902;8.212;2023-04-23T07:50:38;100110.72;;;15.18
71630;BMP280;59479;51.902;8.212;2023-04-23T07:53:03;100101.25;;;15.25
71630;BMP280;59479;51.902;8.212;2023-04-23T07:55:29;100101.13;;;15.29
71630;BMP280;59479;51.902;8.212;2023-04-23T07:57:54;100097.38;;;15.42
71630;BMP280;59479;51.902;8.212;2023-04-23T08:00:19;100097.00;;;15.25
71630;BMP280;59479;51.902;8.212;2023-04-23T08:02:46;100096.88;;;15.31
71630;BMP280;59479;51.902;8.212;2023-04-23T08:05:11;100090.72;;;15.40
71630;BMP280;59479;51.902;8.212;2023-04-23T08:07:36;100093.97;;;15.45
71630;BMP280;59479;51.902;8.212;2023-04-23T08:10:02;100093.59;;;15.56
71630;BMP280;59479;51.902;8.212;2023-04-23T08:12:30;100089.19;;;15.63
71630;BMP280;59479;51.902;8.212;2023-04-23T08:14:57;100090.56;;;15.73
71630;BMP280;59479;51.902;8.212;2023-04-23T08:17:23;100090.44;;;15.77
71630;BMP280;59479;51.902;8.212;2023-04-23T08:19:48;100095.19;;;15.88
71630;BMP280;59479;51.902;8.212;2023-04-23T08:22:13;100093.31;;;15.94
71630;BMP280;59479;51.902;8.212;2023-04-23T08:24:42;100088.03;;;16.01
71630;BMP280;59479;51.902;8.212;2023-04-23T08:27:07;100089.50;;;16.08
71630;BMP280;59479;51.902;8.212;2023-04-23T08:29:32;100086.63;;;16.19
71630;BMP280;59479;51.902;8.212;2023-04-23T08:31:58;100080.34;;;16.32
71630;BMP280;59479;51.902;8.212;2023-04-23T08:34:23;100074.22;;;16.37
71630;BMP280;59479;51.902;8.212;2023-04-23T08:36:49;100084.34;;;16.39
71630;BMP280;59479;51.902;8.212;2023-04-23T08:39:14;100086.03;;;16.38
71630;BMP280;59479;51.902;8.212;2023-04-23T08:41:40;100087.47;;;16.46
71630;BMP280;59479;51.902;8.212;2023-04-23T08:44:18;100083.84;;;16.53
71630;BMP280;59479;51.902;8.212;2023-04-23T08:46:44;100077.69;;;16.60
71630;BMP280;59479;51.902;8.212;2023-04-23T08:49:14;100077.13;;;16.77
71630;BMP280;59479;51.902;8.212;2023-04-23T08:51:52;100082.22;;;16.77
71630;BMP280;59479;51.902;8.212;2023-04-23T08:54:21;100085.03;;;16.68
71630;BMP280;59479;51.902;8.212;2023-04-23T08:56:48;100073.91;;;16.72
71630;BMP280;59479;51.902;8.212;2023-04-23T08:59:14;100069.25;;;16.84
71630;BMP280;59479;51.902;8.212;2023-04-23T09:01:40;100073.22;;;16.91
71630;BMP280;59479;51.902;8.212;2023-04-23T09:04:05;100064.28;;;16.81
71630;BMP280;59479;51.902;8.212;2023-04-23T09:06:31;100058.09;;;16.89
71630;BMP280;59479;51.902;8.212;2023-04-23T09:08:58;100058.09;;;16.89
71630;BMP280;59479;51.902;8.212;2023-04-23T09:11:26;100059.72;;;16.90
71630;BMP280;59479;51.902;8.212;2023-04-23T09:13:51;100056.59;;;16.82
71630;BMP280;59479;51.902;8.212;2023-04-23T09:16:17;100058.84;;;16.91
71630;BMP280;59479;51.902;8.212;2023-04-23T09:18:42;100056.66;;;17.05
71630;BMP280;59479;51.902;8.212;2023-04-23T09:21:08;100053.31;;;17.05
71630;BMP280;59479;51.902;8.212;2023-04-23T09:23:37;100048.66;;;17.16
71630;BMP280;59479;51.902;8.212;2023-04-23T09:26:05;100048.66;;;17.16
71630;BMP280;59479;51.902;8.212;2023-04-23T09:28:36;100043.53;;;17.17
71630;BMP280;59479;51.902;8.212;2023-04-23T09:31:05;100040.63;;;17.27
71630;BMP280;59479;51.902;8.212;2023-04-23T09:33:34;100035.41;;;17.32
71630;BMP280;59479;51.902;8.212;2023-04-23T09:36:13;100030.06;;;17.39
71630;BMP280;59479;51.902;8.212;2023-04-23T09:38:40;100030.63;;;17.46
71630;BMP280;59479;51.902;8.212;2023-04-23T09:41:34;100037.16;;;17.53
71630;BMP280;59479;51.902;8.212;2023-04-23T09:44:01;100034.69;;;17.72
71630;BMP280;59479;51.902;8.212;2023-04-23T09:46:42;100025.22;;;17.76
71630;BMP280;59479;51.902;8.212;2023-04-23T09:49:09;100025.31;;;17.74
71630;BMP280;59479;51.902;8.212;2023-04-23T09:51:55;100014.47;;;17.91
71630;BMP280;59479;51.902;8.212;2023-04-23T09:54:21;100023.72;;;17.93
71630;BMP280;59479;51.902;8.212;2023-04-23T09:56:52;100025.75;;;18.05
71630;BMP280;59479;51.902;8.212;2023-04-23T09:59:25;100014.22;;;18.19
71630;BMP280;59479;51.902;8.212;2023-04-23T10:01:51;100013.81;;;18.28
71630;BMP280;59479;51.902;8.212;2023-04-23T10:04:24;100017.88;;;18.32
71630;BMP280;59479;51.902;8.212;2023-04-23T10:06:53;100011.88;;;18.35
71630;BMP280;59479;51.902;8.212;2023-04-23T10:09:20;100012.75;;;18.34
71630;BMP280;59479;51.902;8.212;2023-04-23T10:11:50;100006.38;;;18.44
71630;BMP280;59479;51.902;8.212;2023-04-23T10:14:16;100005.31;;;18.49
71630;BMP280;59479;51.902;8.212;2023-04-23T10:16:43;100004.34;;;18.52
71630;BMP280;59479;51.902;8.212;2023-04-23T10:19:14;100006.91;;;18.52
71630;BMP280;59479;51.902;8.212;2023-04-23T10:21:43;100010.16;;;18.55
71630;BMP280;59479;51.902;8.212;2023-04-23T10:24:09;100008.81;;;18.66
71630;BMP280;59479;51.902;8.212;2023-04-23T10:26:37;100004.53;;;18.67
71630;BMP280;59479;51.902;8.212;2023-04-23T10:29:08;100007.03;;;18.68
71630;BMP280;59479;51.902;8.212;2023-04-23T10:31:37;100011.81;;;18.56
71630;BMP280;59479;51.902;8.212;2023-04-23T10:34:03;100014.41;;;18.74
71630;BMP280;59479;51.902;8.212;2023-04-23T10:36:32;100011.72;;;18.57
71630;BMP280;59479;51.902;8.212;2023-04-23T10:38:57;100008.41;;;18.55
71630;BMP280;59479;51.902;8.212;2023-04-23T10:41:33;100007.78;;;18.51
71630;BMP280;59479;51.902;8.212;2023-04-23T10:43:59;100008.19;;;18.61
71630;BMP280;59479;51.902;8.212;2023-04-23T10:46:29;100007.22;;;18.64
71630;BMP280;59479;51.902;8.212;2023-04-23T10:51:34;100005.75;;;18.78
71630;BMP280;59479;51.902;8.212;2023-04-23T10:54:04;100001.81;;;18.71
71630;BMP280;59479;51.902;8.212;2023-04-23T10:56:29;99989.31;;;18.85
71630;BMP280;59479;51.902;8.212;2023-04-23T10:58:55;99991.09;;;19.03
71630;BMP280;59479;51.902;8.212;2023-04-23T11:01:27;99988.00;;;19.15
71630;BMP280;59479;51.902;8.212;2023-04-23T11:03:54;99976.72;;;19.20
71630;BMP280;59479;51.902;8.212;2023-04-23T11:12:03;99962.53;;;19.33
71630;BMP280;59479;51.902;8.212;2023-04-23T11:17:04;99964.72;;;19.40
71630;BMP280;59479;51.902;8.212;2023-04-23T11:19:37;99971.63;;;19.38
71630;BMP280;59479;51.902;8.212;2023-04-23T11:22:13;99972.78;;;19.13
71630;BMP280;59479;51.902;8.212;2023-04-23T11:24:40;99961.97;;;19.27
71630;BMP280;59479;51.902;8.212;2023-04-23T11:27:16;99972.25;;;19.25
71630;BMP280;59479;51.902;8.212;2023-04-23T11:29:44;99955.09;;;19.29
71630;BMP280;59479;51.902;8.212;2023-04-23T11:32:10;99962.97;;;19.06
71630;BMP280;59479;51.902;8.212;2023-04-23T11:34:42;99956.19;;;19.23
71630;BMP280;59479;51.902;8.212;2023-04-23T11:37:09;99946.44;;;19.33
71630;BMP280;59479;51.902;8.212;2023-04-23T11:39:35;99946.06;;;19.40
71630;BMP280;59479;51.902;8.212;2023-04-23T11:42:01;99947.38;;;19.48
71630;BMP280;59479;51.902;8.212;2023-04-23T11:44:27;99943.56;;;19.57
71630;BMP280;59479;51.902;8.212;2023-04-23T11:46:53;99938.84;;;19.49
71630;BMP280;59479;51.902;8.212;2023-04-23T11:49:19;99950.09;;;19.62
71630;BMP280;59479;51.902;8.212;2023-04-23T11:51:46;99923.19;;;19.74
71630;BMP280;59479;51.902;8.212;2023-04-23T11:54:12;99919.25;;;19.85
71630;BMP280;59479;51.902;8.212;2023-04-23T11:56:39;99930.22;;;19.87
71630;BMP280;59479;51.902;8.212;2023-04-23T11:59:05;99930.69;;;19.77
71630;BMP280;59479;51.902;8.212;2023-04-23T12:01:53;99931.50;;;19.60
71630;BMP280;59479;51.902;8.212;2023-04-23T12:04:22;99924.75;;;19.59
71630;BMP280;59479;51.902;8.212;2023-04-23T12:06:49;99916.66;;;19.51
71630;BMP280;59479;51.902;8.212;2023-04-23T12:09:17;99926.28;;;19.45
71630;BMP280;59479;51.902;8.212;2023-04-23T12:11:43;99922.00;;;19.45
71630;BMP280;59479;51.902;8.212;2023-04-23T12:14:11;99913.78;;;19.57
71630;BMP280;59479;51.902;8.212;2023-04-23T12:16:40;99912.16;;;19.56
71630;BMP280;59479;51.902;8.212;2023-04-23T12:21:49;99903.69;;;19.56
71630;BMP280;59479;51.902;8.212;2023-04-23T12:24:15;99898.69;;;19.71
71630;BMP280;59479;51.902;8.212;2023-04-23T12:26:40;99895.66;;;19.63
71630;BMP280;59479;51.902;8.212;2023-04-23T12:29:07;99902.94;;;19.71
71630;BMP280;59479;51.902;8.212;2023-04-23T12:31:32;99903.41;;;19.78
71630;BMP280;59479;51.902;8.212;2023-04-23T12:34:08;99890.66;;;19.78
71630;BMP280;59479;51.902;8.212;2023-04-23T12:36:37;99900.03;;;19.78
71630;BMP280;59479;51.902;8.212;2023-04-23T12:39:24;99898.53;;;19.74
71630;BMP280;59479;51.902;8.212;2023-04-23T12:41:55;99896.75;;;19.76
71630;BMP280;59479;51.902;8.212;2023-04-23T12:44:22;99880.88;;;19.88
71630;BMP280;59479;51.902;8.212;2023-04-23T12:46:49;99886.22;;;19.82
71630;BMP280;59479;51.902;8.212;2023-04-23T12:49:17;99881.41;;;19.94
71630;BMP280;59479;51.902;8.212;2023-04-23T12:51:43;99872.88;;;19.77
71630;BMP280;59479;51.902;8.212;2023-04-23T12:54:08;99877.22;;;19.75
71630;BMP280;59479;51.902;8.212;2023-04-23T12:56:33;99866.78;;;19.98
71630;BMP280;59479;51.902;8.212;2023-04-23T12:59:00;99877.25;;;20.09
71630;BMP280;59479;51.902;8.212;2023-04-23T13:01:26;99862.19;;;20.04
71630;BMP280;59479;51.902;8.212;2023-04-23T13:03:51;99867.28;;;20.04
71630;BMP280;59479;51.902;8.212;2023-04-23T13:06:17;99856.50;;;19.99
71630;BMP280;59479;51.902;8.212;2023-04-23T13:08:42;99867.44;;;19.84
71630;BMP280;59479;51.902;8.212;2023-04-23T13:11:07;99862.25;;;19.34
71630;BMP280;59479;51.902;8.212;2023-04-23T13:13:33;99841.31;;;19.63
71630;BMP280;59479;51.902;8.212;2023-04-23T13:15:58;99836.84;;;20.01
71630;BMP280;59479;51.902;8.212;2023-04-23T13:18:23;99828.81;;;19.92
71630;BMP280;59479;51.902;8.212;2023-04-23T13:20:49;99817.75;;;20.08
71630;BMP280;59479;51.902;8.212;2023-04-23T13:23:14;99825.53;;;20.22
71630;BMP280;59479;51.902;8.212;2023-04-23T13:25:39;99822.91;;;20.23
71630;BMP280;59479;51.902;8.212;2023-04-23T13:28:05;99815.53;;;20.34
71630;BMP280;59479;51.902;8.212;2023-04-23T13:30:31;99807.81;;;20.51
71630;BMP280;59479;51.902;8.212;2023-04-23T13:32:56;99807.94;;;20.33
71630;BMP280;59479;51.902;8.212;2023-04-23T13:35:23;99800.81;;;20.39
71630;BMP280;59479;51.902;8.212;2023-04-23T13:37:48;99811.00;;;20.39
71630;BMP280;59479;51.902;8.212;2023-04-23T13:40:14;99832.22;;;20.24
71630;BMP280;59479;51.902;8.212;2023-04-23T13:42:39;99868.91;;;19.72
71630;BMP280;59479;51.902;8.212;2023-04-23T13:45:05;99868.47;;;19.29
71630;BMP280;59479;51.902;8.212;2023-04-23T13:47:31;99873.72;;;19.07
71630;BMP280;59479;51.902;8.212;2023-04-23T13:49:59;99898.97;;;18.75
71630;BMP280;59479;51.902;8.212;2023-04-23T13:52:27;99901.19;;;18.45
71630;BMP280;59479;51.902;8.212;2023-04-23T13:54:52;99898.78;;;18.42
71630;BMP280;59479;51.902;8.212;2023-04-23T13:57:18;99877.72;;;18.38
71630;BMP280;59479;51.902;8.212;2023-04-23T13:59:44;99867.22;;;18.46
71630;BMP280;59479;51.902;8.212;2023-04-23T14:02:09;99826.50;;;18.64
71630;BMP280;59479;51.902;8.212;2023-04-23T14:04:34;99820.72;;;18.60
71630;BMP280;59479;51.902;8.212;2023-04-23T14:07:00;99819.84;;;18.43
71630;BMP280;59479;51.902;8.212;2023-04-23T14:09:25;99826.66;;;18.43